sensor_id;sensor_type;location;lat;lon;timestamp;P1;durP1;ratioP1;P2;durP2;ratioP2
27489;SDS011;14925;51.026;13.752;2022-08-21T00:00:06;148.63;;;52.15;;
27489;SDS011;14925;51.026;13.752;2022-08-21T00:02:33;135.68;;;62.92;;
27489;SDS011;14925;51.026;13.752;2022-08-21T00:04:58;168.77;;;68.15;;
27489;SDS011;14925;51.026;13.752;2022-08-21T00:07:23;138.35;;;56.20;;
27489;SDS011;14925;51.026;13.752;2022-08-21T00:09:49;187.43;;;70.88;;
27489;SDS011;14925;51.026;13.752;2022-08-21T00:12:14;213.52;;;74.68;;
27489;SDS011;14925;51.026;13.752;2022-08-21T00:14:39;114.72;;;55.08;;
27489;SDS011;14925;51.026;13.752;2022-08-21T00:17:05;96.93;;;53.75;;
27489;SDS011;14925;51.026;13.752;2022-08-21T00:19:31;128.90;;;56.92;;
27489;SDS011;14925;51.026;13.752;2022-08-21T00:21:57;100.47;;;55.55;;
27489;SDS011;14925;51.026;13.752;2022-08-21T00:24:23;126.25;;;59.10;;
27489;SDS011;14925;51.026;13.752;2022-08-21T00:26:49;204.27;;;75.28;;
27489;SDS011;14925;51.026;13.752;2022-08-21T00:29:15;172.13;;;68.00;;
27489;SDS011;14925;51.026;13.752;2022-08-21T00:31:41;206.57;;;74.63;;
27489;SDS011;14925;51.026;13.752;2022-08-21T00:34:07;177.02;;;70.75;;
27489;SDS011;14925;51.026;13.752;2022-08-21T00:36:32;194.10;;;72.82;;
27489;SDS011;14925;51.026;13.752;2022-08-21T00:38:58;138.30;;;62.13;;
27489;SDS011;14925;51.026;13.752;2022-08-21T00:41:24;110.35;;;57.83;;
27489;SDS011;14925;51.026;13.752;2022-08-21T00:43:49;171.00;;;67.82;;
27489;SDS011;14925;51.026;13.752;2022-08-21T00:46:16;152.25;;;64.00;;
27489;SDS011;14925;51.026;13.752;2022-08-21T00:48:41;128.75;;;60.20;;
27489;SDS011;14925;51.026;13.752;2022-08-21T00:51:08;106.97;;;56.17;;
27489;SDS011;14925;51.026;13.752;2022-08-21T00:53:53;143.18;;;63.60;;
27489;SDS011;14925;51.026;13.752;2022-08-21T00:56:21;147.80;;;64.85;;
27489;SDS011;14925;51.026;13.752;2022-08-21T00:58:46;161.90;;;64.40;;
27489;SDS011;14925;51.026;13.752;2022-08-21T01:01:12;132.40;;;62.00;;
27489;SDS011;14925;51.026;13.752;2022-08-21T01:03:38;156.60;;;62.67;;
27489;SDS011;14925;51.026;13.752;2022-08-21T01:06:04;86.43;;;48.83;;
27489;SDS011;14925;51.026;13.752;2022-08-21T01:08:30;139.13;;;63.35;;
27489;SDS011;14925;51.026;13.752;2022-08-21T01:10:56;210.65;;;69.40;;
27489;SDS011;14925;51.026;13.752;2022-08-21T01:13:21;149.50;;;65.25;;
27489;SDS011;14925;51.026;13.752;2022-08-21T01:15:49;143.30;;;62.90;;
27489;SDS011;14925;51.026;13.752;2022-08-21T01:18:17;124.85;;;63.92;;
27489;SDS011;14925;51.026;13.752;2022-08-21T01:20:50;117.57;;;59.95;;
27489;SDS011;14925;51.026;13.752;2022-08-21T01:23:27;117.82;;;61.55;;
27489;SDS011;14925;51.026;13.752;2022-08-21T01:25:56;159.02;;;70.65;;
27489;SDS011;14925;51.026;13.752;2022-08-21T01:28:21;118.88;;;58.78;;
27489;SDS011;14925;51.026;13.752;2022-08-21T01:30:48;136.15;;;57.88;;
27489;SDS011;14925;51.026;13.752;2022-08-21T01:33:16;78.88;;;45.42;;
27489;SDS011;14925;51.026;13.752;2022-08-21T01:35:43;95.25;;;48.45;;
27489;SDS011;14925;51.026;13.752;2022-08-21T01:38:10;83.88;;;42.95;;
27489;SDS011;14925;51.026;13.752;2022-08-21T01:40:37;86.93;;;41.35;;
27489;SDS011;14925;51.026;13.752;2022-08-21T01:43:02;62.90;;;36.13;;
27489;SDS011;14925;51.026;13.752;2022-08-21T01:45:28;80.50;;;39.83;;
27489;SDS011;14925;51.026;13.752;2022-08-21T01:47:56;78.22;;;39.47;;
27489;SDS011;14925;51.026;13.752;2022-08-21T01:50:29;55.53;;;31.60;;
27489;SDS011;14925;51.026;13.752;2022-08-21T01:52:55;44.40;;;26.63;;
27489;SDS011;14925;51.026;13.752;2022-08-21T01:55:20;47.63;;;29.48;;
27489;SDS011;14925;51.026;13.752;2022-08-21T01:57:47;37.63;;;25.25;;
27489;SDS011;14925;51.026;13.752;2022-08-21T02:00:13;71.47;;;35.35;;
27489;SDS011;14925;51.026;13.752;2022-08-21T02:02:41;50.38;;;28.95;;
27489;SDS011;14925;51.026;13.752;2022-08-21T02:05:07;53.08;;;31.73;;
27489;SDS011;14925;51.026;13.752;2022-08-21T02:07:41;54.03;;;30.77;;
27489;SDS011;14925;51.026;13.752;2022-08-21T02:10:18;64.20;;;32.70;;
27489;SDS011;14925;51.026;13.752;2022-08-21T02:12:46;32.95;;;22.08;;
27489;SDS011;14925;51.026;13.752;2022-08-21T02:15:11;38.50;;;24.92;;
27489;SDS011;14925;51.026;13.752;2022-08-21T02:17:38;49.47;;;28.15;;
27489;SDS011;14925;51.026;13.752;2022-08-21T02:20:04;37.60;;;24.60;;
27489;SDS011;14925;51.026;13.752;2022-08-21T02:22:30;36.55;;;23.42;;
27489;SDS011;14925;51.026;13.752;2022-08-21T02:24:55;61.53;;;29.92;;
27489;SDS011;14925;51.026;13.752;2022-08-21T02:27:24;33.40;;;23.30;;
27489;SDS011;14925;51.026;13.752;2022-08-21T02:29:50;36.20;;;22.98;;
27489;SDS011;14925;51.026;13.752;2022-08-21T02:32:15;91.63;;;36.95;;
27489;SDS011;14925;51.026;13.752;2022-08-21T02:34:40;31.90;;;21.90;;
27489;SDS011;14925;51.026;13.752;2022-08-21T02:37:06;44.67;;;26.20;;
27489;SDS011;14925;51.026;13.752;2022-08-21T02:39:31;40.78;;;24.33;;
27489;SDS011;14925;51.026;13.752;2022-08-21T02:41:56;35.22;;;23.10;;
27489;SDS011;14925;51.026;13.752;2022-08-21T02:44:22;37.95;;;23.65;;
27489;SDS011;14925;51.026;13.752;2022-08-21T02:46:47;38.30;;;24.58;;
27489;SDS011;14925;51.026;13.752;2022-08-21T02:49:12;37.97;;;23.45;;
27489;SDS011;14925;51.026;13.752;2022-08-21T02:51:38;37.17;;;23.75;;
27489;SDS011;14925;51.026;13.752;2022-08-21T02:54:03;41.97;;;25.67;;
27489;SDS011;14925;51.026;13.752;2022-08-21T02:56:29;27.00;;;20.02;;
27489;SDS011;14925;51.026;13.752;2022-08-21T02:58:54;39.55;;;25.27;;
27489;SDS011;14925;51.026;13.752;2022-08-21T03:01:20;38.33;;;22.88;;
27489;SDS011;14925;51.026;13.752;2022-08-21T03:03:46;49.80;;;26.33;;
27489;SDS011;14925;51.026;13.752;2022-08-21T03:06:14;27.63;;;20.48;;
27489;SDS011;14925;51.026;13.752;2022-08-21T03:08:41;29.23;;;19.77;;
27489;SDS011;14925;51.026;13.752;2022-08-21T03:11:06;29.42;;;19.75;;
27489;SDS011;14925;51.026;13.752;2022-08-21T03:13:32;24.30;;;17.42;;
27489;SDS011;14925;51.026;13.752;2022-08-21T03:15:58;26.70;;;19.15;;
27489;SDS011;14925;51.026;13.752;2022-08-21T03:18:26;32.65;;;20.15;;
27489;SDS011;14925;51.026;13.752;2022-08-21T03:20:51;26.02;;;19.63;;
27489;SDS011;14925;51.026;13.752;2022-08-21T03:23:17;26.55;;;19.50;;
27489;SDS011;14925;51.026;13.752;2022-08-21T03:25:46;34.17;;;21.98;;
27489;SDS011;14925;51.026;13.752;2022-08-21T03:28:13;26.38;;;19.27;;
27489;SDS011;14925;51.026;13.752;2022-08-21T03:30:41;33.50;;;22.77;;
27489;SDS011;14925;51.026;13.752;2022-08-21T03:33:07;28.27;;;19.60;;
27489;SDS011;14925;51.026;13.752;2022-08-21T03:35:33;30.75;;;20.60;;
27489;SDS011;14925;51.026;13.752;2022-08-21T03:37:58;49.70;;;24.35;;
27489;SDS011;14925;51.026;13.752;2022-08-21T03:40:24;35.97;;;22.40;;
27489;SDS011;14925;51.026;13.752;2022-08-21T03:42:50;60.10;;;22.77;;
27489;SDS011;14925;51.026;13.752;2022-08-21T03:45:16;77.50;;;25.90;;
27489;SDS011;14925;51.026;13.752;2022-08-21T03:47:56;55.10;;;27.48;;
27489;SDS011;14925;51.026;13.752;2022-08-21T03:50:28;57.30;;;28.55;;
27489;SDS011;14925;51.026;13.752;2022-08-21T03:52:55;101.00;;;34.15;;
27489;SDS011;14925;51.026;13.752;2022-08-21T03:55:21;46.20;;;24.00;;
27489;SDS011;14925;51.026;13.752;2022-08-21T03:57:47;40.85;;;22.58;;
27489;SDS011;14925;51.026;13.752;2022-08-21T04:00:12;41.10;;;25.33;;
27489;SDS011;14925;51.026;13.752;2022-08-21T04:02:39;35.17;;;24.45;;
27489;SDS011;14925;51.026;13.752;2022-08-21T04:05:05;72.15;;;33.28;;
27489;SDS011;14925;51.026;13.752;2022-08-21T04:07:31;43.08;;;27.00;;
27489;SDS011;14925;51.026;13.752;2022-08-21T04:09:57;77.00;;;35.15;;
27489;SDS011;14925;51.026;13.752;2022-08-21T04:12:22;48.85;;;26.48;;
27489;SDS011;14925;51.026;13.752;2022-08-21T04:14:48;44.95;;;26.58;;
27489;SDS011;14925;51.026;13.752;2022-08-21T04:17:15;30.48;;;21.33;;
27489;SDS011;14925;51.026;13.752;2022-08-21T04:19:40;62.53;;;29.70;;
27489;SDS011;14925;51.026;13.752;2022-08-21T04:22:06;76.75;;;34.95;;
27489;SDS011;14925;51.026;13.752;2022-08-21T04:24:31;51.25;;;29.40;;
27489;SDS011;14925;51.026;13.752;2022-08-21T04:26:56;34.78;;;23.23;;
27489;SDS011;14925;51.026;13.752;2022-08-21T04:29:22;32.92;;;21.55;;
27489;SDS011;14925;51.026;13.752;2022-08-21T04:31:47;45.67;;;27.30;;
27489;SDS011;14925;51.026;13.752;2022-08-21T04:34:12;37.72;;;23.38;;
27489;SDS011;14925;51.026;13.752;2022-08-21T04:36:41;40.13;;;24.98;;
27489;SDS011;14925;51.026;13.752;2022-08-21T04:39:06;33.30;;;22.60;;
27489;SDS011;14925;51.026;13.752;2022-08-21T04:41:31;42.67;;;25.63;;
27489;SDS011;14925;51.026;13.752;2022-08-21T04:43:57;64.03;;;30.95;;
27489;SDS011;14925;51.026;13.752;2022-08-21T04:46:29;32.28;;;22.23;;
27489;SDS011;14925;51.026;13.752;2022-08-21T04:48:55;32.75;;;22.40;;
27489;SDS011;14925;51.026;13.752;2022-08-21T04:51:24;66.95;;;30.95;;
27489;SDS011;14925;51.026;13.752;2022-08-21T04:53:55;54.60;;;28.60;;
27489;SDS011;14925;51.026;13.752;2022-08-21T04:56:43;36.72;;;23.65;;
27489;SDS011;14925;51.026;13.752;2022-08-21T04:59:17;43.17;;;25.63;;
27489;SDS011;14925;51.026;13.752;2022-08-21T05:01:46;67.68;;;34.42;;
27489;SDS011;14925;51.026;13.752;2022-08-21T05:04:12;34.60;;;22.67;;
27489;SDS011;14925;51.026;13.752;2022-08-21T05:06:40;33.28;;;23.02;;
27489;SDS011;14925;51.026;13.752;2022-08-21T05:09:07;51.35;;;28.25;;
27489;SDS011;14925;51.026;13.752;2022-08-21T05:11:34;39.47;;;26.75;;
27489;SDS011;14925;51.026;13.752;2022-08-21T05:14:00;61.47;;;31.10;;
27489;SDS011;14925;51.026;13.752;2022-08-21T05:16:28;42.63;;;23.35;;
27489;SDS011;14925;51.026;13.752;2022-08-21T05:18:56;44.58;;;26.00;;
27489;SDS011;14925;51.026;13.752;2022-08-21T05:21:21;56.80;;;29.08;;
27489;SDS011;14925;51.026;13.752;2022-08-21T05:23:47;42.17;;;26.58;;
27489;SDS011;14925;51.026;13.752;2022-08-21T05:26:12;36.65;;;25.85;;
27489;SDS011;14925;51.026;13.752;2022-08-21T05:28:37;38.83;;;25.88;;
27489;SDS011;14925;51.026;13.752;2022-08-21T05:31:03;42.53;;;26.85;;
27489;SDS011;14925;51.026;13.752;2022-08-21T05:33:31;59.17;;;31.52;;
27489;SDS011;14925;51.026;13.752;2022-08-21T05:35:58;46.63;;;29.35;;
27489;SDS011;14925;51.026;13.752;2022-08-21T05:38:26;50.97;;;27.20;;
27489;SDS011;14925;51.026;13.752;2022-08-21T05:40:54;62.10;;;33.38;;
27489;SDS011;14925;51.026;13.752;2022-08-21T05:43:22;108.20;;;44.03;;
27489;SDS011;14925;51.026;13.752;2022-08-21T05:45:47;97.22;;;39.38;;
27489;SDS011;14925;51.026;13.752;2022-08-21T05:48:14;41.25;;;27.35;;
27489;SDS011;14925;51.026;13.752;2022-08-21T05:50:49;87.25;;;40.95;;
27489;SDS011;14925;51.026;13.752;2022-08-21T05:53:16;61.38;;;36.83;;
27489;SDS011;14925;51.026;13.752;2022-08-21T05:55:43;66.03;;;37.25;;
27489;SDS011;14925;51.026;13.752;2022-08-21T05:58:13;72.18;;;40.72;;
27489;SDS011;14925;51.026;13.752;2022-08-21T06:00:43;92.30;;;45.80;;
27489;SDS011;14925;51.026;13.752;2022-08-21T06:03:10;110.03;;;49.42;;
27489;SDS011;14925;51.026;13.752;2022-08-21T06:05:41;117.28;;;50.72;;
27489;SDS011;14925;51.026;13.752;2022-08-21T06:08:07;103.82;;;47.38;;
27489;SDS011;14925;51.026;13.752;2022-08-21T06:10:33;66.68;;;39.63;;
27489;SDS011;14925;51.026;13.752;2022-08-21T06:12:58;70.57;;;39.95;;
27489;SDS011;14925;51.026;13.752;2022-08-21T06:15:27;55.20;;;36.60;;
27489;SDS011;14925;51.026;13.752;2022-08-21T06:17:53;75.43;;;42.90;;
27489;SDS011;14925;51.026;13.752;2022-08-21T06:20:18;78.75;;;44.53;;
27489;SDS011;14925;51.026;13.752;2022-08-21T06:22:44;104.22;;;49.13;;
27489;SDS011;14925;51.026;13.752;2022-08-21T06:25:09;50.60;;;34.40;;
27489;SDS011;14925;51.026;13.752;2022-08-21T06:27:35;95.60;;;48.10;;
27489;SDS011;14925;51.026;13.752;2022-08-21T06:30:01;71.97;;;41.95;;
27489;SDS011;14925;51.026;13.752;2022-08-21T06:32:27;51.05;;;35.80;;
27489;SDS011;14925;51.026;13.752;2022-08-21T06:34:52;54.88;;;34.03;;
27489;SDS011;14925;51.026;13.752;2022-08-21T06:37:17;50.50;;;33.22;;
27489;SDS011;14925;51.026;13.752;2022-08-21T06:39:46;58.97;;;36.72;;
27489;SDS011;14925;51.026;13.752;2022-08-21T06:42:15;57.28;;;37.33;;
27489;SDS011;14925;51.026;13.752;2022-08-21T06:44:43;64.05;;;39.22;;
27489;SDS011;14925;51.026;13.752;2022-08-21T06:47:15;46.20;;;35.00;;
27489;SDS011;14925;51.026;13.752;2022-08-21T06:49:40;124.40;;;50.47;;
27489;SDS011;14925;51.026;13.752;2022-08-21T06:52:10;71.82;;;43.55;;
27489;SDS011;14925;51.026;13.752;2022-08-21T06:54:36;70.57;;;40.45;;
27489;SDS011;14925;51.026;13.752;2022-08-21T06:57:05;63.03;;;37.20;;
27489;SDS011;14925;51.026;13.752;2022-08-21T06:59:31;55.60;;;36.75;;
27489;SDS011;14925;51.026;13.752;2022-08-21T07:01:57;43.60;;;32.78;;
27489;SDS011;14925;51.026;13.752;2022-08-21T07:04:22;47.17;;;33.97;;
27489;SDS011;14925;51.026;13.752;2022-08-21T07:06:48;40.17;;;31.63;;
27489;SDS011;14925;51.026;13.752;2022-08-21T07:09:13;47.70;;;33.35;;
27489;SDS011;14925;51.026;13.752;2022-08-21T07:11:41;45.55;;;32.58;;
27489;SDS011;14925;51.026;13.752;2022-08-21T07:14:07;57.17;;;38.17;;
27489;SDS011;14925;51.026;13.752;2022-08-21T07:16:32;37.15;;;28.52;;
27489;SDS011;14925;51.026;13.752;2022-08-21T07:18:57;40.03;;;32.17;;
27489;SDS011;14925;51.026;13.752;2022-08-21T07:21:23;56.63;;;37.13;;
27489;SDS011;14925;51.026;13.752;2022-08-21T07:23:50;49.70;;;32.10;;
27489;SDS011;14925;51.026;13.752;2022-08-21T07:26:17;43.88;;;32.55;;
27489;SDS011;14925;51.026;13.752;2022-08-21T07:28:49;47.05;;;35.03;;
27489;SDS011;14925;51.026;13.752;2022-08-21T07:31:16;47.92;;;34.10;;
27489;SDS011;14925;51.026;13.752;2022-08-21T07:33:42;37.28;;;29.35;;
27489;SDS011;14925;51.026;13.752;2022-08-21T07:36:08;42.83;;;30.80;;
27489;SDS011;14925;51.026;13.752;2022-08-21T07:38:33;37.65;;;28.13;;
27489;SDS011;14925;51.026;13.752;2022-08-21T07:41:00;36.92;;;31.08;;
27489;SDS011;14925;51.026;13.752;2022-08-21T07:43:26;37.63;;;30.15;;
27489;SDS011;14925;51.026;13.752;2022-08-21T07:45:52;53.63;;;35.78;;
27489;SDS011;14925;51.026;13.752;2022-08-21T07:48:19;32.08;;;26.08;;
27489;SDS011;14925;51.026;13.752;2022-08-21T07:50:45;42.63;;;33.35;;
27489;SDS011;14925;51.026;13.752;2022-08-21T07:53:14;32.10;;;26.67;;
27489;SDS011;14925;51.026;13.752;2022-08-21T07:55:49;36.67;;;28.67;;
27489;SDS011;14925;51.026;13.752;2022-08-21T07:58:17;47.28;;;30.40;;
27489;SDS011;14925;51.026;13.752;2022-08-21T08:00:45;39.13;;;28.60;;
27489;SDS011;14925;51.026;13.752;2022-08-21T08:03:13;39.47;;;31.00;;
27489;SDS011;14925;51.026;13.752;2022-08-21T08:05:38;36.75;;;29.42;;
27489;SDS011;14925;51.026;13.752;2022-08-21T08:08:04;37.92;;;30.15;;
27489;SDS011;14925;51.026;13.752;2022-08-21T08:10:31;37.08;;;27.63;;
27489;SDS011;14925;51.026;13.752;2022-08-21T08:12:57;42.80;;;31.65;;
27489;SDS011;14925;51.026;13.752;2022-08-21T08:15:23;35.90;;;27.02;;
27489;SDS011;14925;51.026;13.752;2022-08-21T08:17:49;29.40;;;22.95;;
27489;SDS011;14925;51.026;13.752;2022-08-21T08:20:15;31.83;;;26.25;;
27489;SDS011;14925;51.026;13.752;2022-08-21T08:22:43;30.63;;;26.55;;
27489;SDS011;14925;51.026;13.752;2022-08-21T08:25:10;28.00;;;22.42;;
27489;SDS011;14925;51.026;13.752;2022-08-21T08:27:39;58.85;;;38.40;;
27489;SDS011;14925;51.026;13.752;2022-08-21T08:30:08;38.45;;;28.27;;
27489;SDS011;14925;51.026;13.752;2022-08-21T08:32:35;27.80;;;24.33;;
27489;SDS011;14925;51.026;13.752;2022-08-21T08:35:01;29.60;;;25.63;;
27489;SDS011;14925;51.026;13.752;2022-08-21T08:37:36;27.23;;;24.27;;
27489;SDS011;14925;51.026;13.752;2022-08-21T08:43:20;28.33;;;23.88;;
27489;SDS011;14925;51.026;13.752;2022-08-21T08:45:53;26.77;;;22.45;;
27489;SDS011;14925;51.026;13.752;2022-08-21T08:54:26;34.67;;;27.38;;
27489;SDS011;14925;51.026;13.752;2022-08-21T08:56:58;23.05;;;19.75;;
27489;SDS011;14925;51.026;13.752;2022-08-21T08:59:44;20.05;;;17.60;;
27489;SDS011;14925;51.026;13.752;2022-08-21T09:02:21;26.23;;;19.50;;
27489;SDS011;14925;51.026;13.752;2022-08-21T09:04:50;26.08;;;17.83;;
27489;SDS011;14925;51.026;13.752;2022-08-21T09:07:32;21.75;;;17.88;;
27489;SDS011;14925;51.026;13.752;2022-08-21T09:10:07;25.25;;;19.33;;
27489;SDS011;14925;51.026;13.752;2022-08-21T09:27:08;22.35;;;13.85;;
27489;SDS011;14925;51.026;13.752;2022-08-21T09:29:45;15.02;;;11.65;;
27489;SDS011;14925;51.026;13.752;2022-08-21T09:32:27;19.20;;;12.57;;
27489;SDS011;14925;51.026;13.752;2022-08-21T09:34:55;19.40;;;10.88;;
27489;SDS011;14925;51.026;13.752;2022-08-21T09:37:22;20.65;;;15.25;;
27489;SDS011;14925;51.026;13.752;2022-08-21T09:39:48;15.90;;;12.00;;
27489;SDS011;14925;51.026;13.752;2022-08-21T09:42:20;17.92;;;10.73;;
27489;SDS011;14925;51.026;13.752;2022-08-21T09:45:10;16.08;;;11.18;;
27489;SDS011;14925;51.026;13.752;2022-08-21T09:47:40;16.88;;;11.18;;
27489;SDS011;14925;51.026;13.752;2022-08-21T09:50:09;11.70;;;8.70;;
27489;SDS011;14925;51.026;13.752;2022-08-21T09:52:57;13.38;;;9.52;;
27489;SDS011;14925;51.026;13.752;2022-08-21T09:55:29;11.75;;;7.13;;
27489;SDS011;14925;51.026;13.752;2022-08-21T09:58:15;17.20;;;7.85;;
27489;SDS011;14925;51.026;13.752;2022-08-21T10:00:42;16.27;;;8.20;;
27489;SDS011;14925;51.026;13.752;2022-08-21T10:03:12;15.52;;;7.22;;
27489;SDS011;14925;51.026;13.752;2022-08-21T10:05:54;13.60;;;7.00;;
27489;SDS011;14925;51.026;13.752;2022-08-21T10:08:25;13.77;;;7.80;;
27489;SDS011;14925;51.026;13.752;2022-08-21T10:10:54;11.25;;;5.43;;
27489;SDS011;14925;51.026;13.752;2022-08-21T10:19:45;12.73;;;6.05;;
27489;SDS011;14925;51.026;13.752;2022-08-21T10:25:23;9.23;;;6.47;;
27489;SDS011;14925;51.026;13.752;2022-08-21T10:28:13;10.55;;;6.50;;
27489;SDS011;14925;51.026;13.752;2022-08-21T10:33:53;11.77;;;4.25;;
27489;SDS011;14925;51.026;13.752;2022-08-21T10:36:33;7.90;;;3.70;;
27489;SDS011;14925;51.026;13.752;2022-08-21T10:42:05;8.65;;;4.05;;
27489;SDS011;14925;51.026;13.752;2022-08-21T10:55:09;9.25;;;3.75;;
27489;SDS011;14925;51.026;13.752;2022-08-21T11:00:19;9.35;;;3.80;;
27489;SDS011;14925;51.026;13.752;2022-08-21T11:02:57;8.57;;;3.97;;
27489;SDS011;14925;51.026;13.752;2022-08-21T11:05:31;9.98;;;4.15;;
27489;SDS011;14925;51.026;13.752;2022-08-21T11:08:42;9.25;;;3.78;;
27489;SDS011;14925;51.026;13.752;2022-08-21T11:11:10;7.75;;;3.60;;
27489;SDS011;14925;51.026;13.752;2022-08-21T11:13:52;9.65;;;3.80;;
27489;SDS011;14925;51.026;13.752;2022-08-21T11:21:54;13.68;;;4.47;;
27489;SDS011;14925;51.026;13.752;2022-08-21T11:24:32;9.93;;;3.53;;
27489;SDS011;14925;51.026;13.752;2022-08-21T11:29:47;10.45;;;3.70;;
27489;SDS011;14925;51.026;13.752;2022-08-21T11:34:54;6.47;;;2.88;;
27489;SDS011;14925;51.026;13.752;2022-08-21T11:37:45;10.90;;;2.80;;
27489;SDS011;14925;51.026;13.752;2022-08-21T11:45:50;12.40;;;2.75;;
27489;SDS011;14925;51.026;13.752;2022-08-21T11:50:44;9.27;;;2.85;;
27489;SDS011;14925;51.026;13.752;2022-08-21T11:53:12;6.13;;;2.15;;
27489;SDS011;14925;51.026;13.752;2022-08-21T11:58:26;9.15;;;2.28;;
27489;SDS011;14925;51.026;13.752;2022-08-21T12:00:59;12.50;;;2.33;;
27489;SDS011;14925;51.026;13.752;2022-08-21T12:03:52;9.15;;;2.28;;
27489;SDS011;14925;51.026;13.752;2022-08-21T12:06:51;7.07;;;2.15;;
27489;SDS011;14925;51.026;13.752;2022-08-21T12:11:49;5.85;;;1.98;;
27489;SDS011;14925;51.026;13.752;2022-08-21T12:14:44;7.97;;;2.17;;
27489;SDS011;14925;51.026;13.752;2022-08-21T12:17:21;7.25;;;2.30;;
27489;SDS011;14925;51.026;13.752;2022-08-21T12:20:15;9.25;;;2.13;;
27489;SDS011;14925;51.026;13.752;2022-08-21T12:22:47;13.43;;;2.30;;
27489;SDS011;14925;51.026;13.752;2022-08-21T12:25:16;4.68;;;1.50;;
27489;SDS011;14925;51.026;13.752;2022-08-21T12:30:20;10.57;;;2.20;;
27489;SDS011;14925;51.026;13.752;2022-08-21T12:33:00;6.72;;;2.05;;
27489;SDS011;14925;51.026;13.752;2022-08-21T12:35:31;7.45;;;1.80;;
27489;SDS011;14925;51.026;13.752;2022-08-21T12:38:18;10.52;;;2.15;;
27489;SDS011;14925;51.026;13.752;2022-08-21T12:43:38;4.38;;;1.63;;
27489;SDS011;14925;51.026;13.752;2022-08-21T12:46:06;6.00;;;1.88;;
27489;SDS011;14925;51.026;13.752;2022-08-21T12:48:44;8.15;;;1.92;;
27489;SDS011;14925;51.026;13.752;2022-08-21T12:51:14;8.68;;;2.00;;
27489;SDS011;14925;51.026;13.752;2022-08-21T12:53:52;6.43;;;1.80;;
27489;SDS011;14925;51.026;13.752;2022-08-21T12:56:20;9.13;;;2.00;;
27489;SDS011;14925;51.026;13.752;2022-08-21T12:58:50;6.90;;;1.92;;
27489;SDS011;14925;51.026;13.752;2022-08-21T13:04:01;9.10;;;1.90;;
27489;SDS011;14925;51.026;13.752;2022-08-21T13:06:29;8.88;;;2.40;;
27489;SDS011;14925;51.026;13.752;2022-08-21T13:09:03;8.57;;;1.77;;
27489;SDS011;14925;51.026;13.752;2022-08-21T13:11:29;7.03;;;2.35;;
27489;SDS011;14925;51.026;13.752;2022-08-21T13:13:57;7.00;;;2.10;;
27489;SDS011;14925;51.026;13.752;2022-08-21T13:16:26;7.07;;;2.30;;
27489;SDS011;14925;51.026;13.752;2022-08-21T13:19:00;8.00;;;2.20;;
27489;SDS011;14925;51.026;13.752;2022-08-21T13:21:38;7.95;;;2.28;;
27489;SDS011;14925;51.026;13.752;2022-08-21T13:26:50;8.27;;;2.40;;
27489;SDS011;14925;51.026;13.752;2022-08-21T13:29:18;9.32;;;2.38;;
27489;SDS011;14925;51.026;13.752;2022-08-21T13:31:52;6.35;;;2.05;;
27489;SDS011;14925;51.026;13.752;2022-08-21T13:34:20;7.28;;;2.00;;
27489;SDS011;14925;51.026;13.752;2022-08-21T13:36:49;7.95;;;2.50;;
27489;SDS011;14925;51.026;13.752;2022-08-21T13:39:17;9.20;;;2.47;;
27489;SDS011;14925;51.026;13.752;2022-08-21T13:41:44;11.40;;;2.40;;
27489;SDS011;14925;51.026;13.752;2022-08-21T13:44:19;8.43;;;2.47;;
27489;SDS011;14925;51.026;13.752;2022-08-21T13:46:51;8.13;;;2.38;;
27489;SDS011;14925;51.026;13.752;2022-08-21T13:49:18;6.88;;;2.08;;
27489;SDS011;14925;51.026;13.752;2022-08-21T13:51:45;9.43;;;2.30;;
27489;SDS011;14925;51.026;13.752;2022-08-21T13:56:55;9.80;;;2.22;;
27489;SDS011;14925;51.026;13.752;2022-08-21T13:59:30;8.45;;;2.30;;
27489;SDS011;14925;51.026;13.752;2022-08-21T14:02:01;6.35;;;1.95;;
27489;SDS011;14925;51.026;13.752;2022-08-21T14:04:35;9.50;;;2.28;;
27489;SDS011;14925;51.026;13.752;2022-08-21T14:07:02;10.55;;;2.05;;
27489;SDS011;14925;51.026;13.752;2022-08-21T14:09:35;12.05;;;2.00;;
27489;SDS011;14925;51.026;13.752;2022-08-21T14:12:14;6.47;;;2.00;;
27489;SDS011;14925;51.026;13.752;2022-08-21T14:14:41;9.80;;;2.08;;
27489;SDS011;14925;51.026;13.752;2022-08-21T14:17:09;9.13;;;2.00;;
27489;SDS011;14925;51.026;13.752;2022-08-21T14:19:38;7.72;;;1.70;;
27489;SDS011;14925;51.026;13.752;2022-08-21T14:22:28;6.30;;;1.60;;
27489;SDS011;14925;51.026;13.752;2022-08-21T14:25:00;10.60;;;2.33;;
27489;SDS011;14925;51.026;13.752;2022-08-21T14:27:44;8.68;;;2.00;;
27489;SDS011;14925;51.026;13.752;2022-08-21T14:30:27;7.60;;;1.90;;
27489;SDS011;14925;51.026;13.752;2022-08-21T14:32:54;7.47;;;2.05;;
27489;SDS011;14925;51.026;13.752;2022-08-21T14:35:19;5.45;;;1.80;;
27489;SDS011;14925;51.026;13.752;2022-08-21T14:37:47;6.25;;;1.73;;
27489;SDS011;14925;51.026;13.752;2022-08-21T14:40:18;10.23;;;1.70;;
27489;SDS011;14925;51.026;13.752;2022-08-21T14:42:44;7.00;;;1.63;;
27489;SDS011;14925;51.026;13.752;2022-08-21T14:45:14;9.63;;;1.70;;
27489;SDS011;14925;51.026;13.752;2022-08-21T14:47:48;7.18;;;1.80;;
27489;SDS011;14925;51.026;13.752;2022-08-21T14:50:14;8.57;;;2.08;;
27489;SDS011;14925;51.026;13.752;2022-08-21T14:52:40;5.22;;;1.60;;
27489;SDS011;14925;51.026;13.752;2022-08-21T14:55:07;10.55;;;1.60;;
27489;SDS011;14925;51.026;13.752;2022-08-21T14:57:35;7.50;;;1.58;;
27489;SDS011;14925;51.026;13.752;2022-08-21T15:00:01;5.70;;;1.70;;
27489;SDS011;14925;51.026;13.752;2022-08-21T15:02:29;6.70;;;1.60;;
27489;SDS011;14925;51.026;13.752;2022-08-21T15:04:54;8.48;;;1.80;;
27489;SDS011;14925;51.026;13.752;2022-08-21T15:07:20;6.55;;;1.77;;
27489;SDS011;14925;51.026;13.752;2022-08-21T15:09:45;8.02;;;1.92;;
27489;SDS011;14925;51.026;13.752;2022-08-21T15:12:10;6.22;;;1.60;;
27489;SDS011;14925;51.026;13.752;2022-08-21T15:14:39;4.40;;;1.52;;
27489;SDS011;14925;51.026;13.752;2022-08-21T15:17:06;8.18;;;1.73;;
27489;SDS011;14925;51.026;13.752;2022-08-21T15:19:32;6.38;;;1.70;;
27489;SDS011;14925;51.026;13.752;2022-08-21T15:21:58;9.10;;;1.67;;
27489;SDS011;14925;51.026;13.752;2022-08-21T15:24:24;7.45;;;1.95;;
27489;SDS011;14925;51.026;13.752;2022-08-21T15:26:49;8.38;;;1.60;;
27489;SDS011;14925;51.026;13.752;2022-08-21T15:29:15;5.47;;;1.83;;
27489;SDS011;14925;51.026;13.752;2022-08-21T15:32:29;8.65;;;1.48;;
27489;SDS011;14925;51.026;13.752;2022-08-21T15:34:41;7.55;;;1.65;;
27489;SDS011;14925;51.026;13.752;2022-08-21T15:37:06;7.38;;;1.60;;
27489;SDS011;14925;51.026;13.752;2022-08-21T15:39:33;6.07;;;1.52;;
27489;SDS011;14925;51.026;13.752;2022-08-21T15:41:59;6.78;;;1.40;;
27489;SDS011;14925;51.026;13.752;2022-08-21T15:44:25;5.78;;;1.48;;
27489;SDS011;14925;51.026;13.752;2022-08-21T15:46:54;5.28;;;1.52;;
27489;SDS011;14925;51.026;13.752;2022-08-21T15:49:20;4.63;;;1.73;;
27489;SDS011;14925;51.026;13.752;2022-08-21T15:51:46;8.85;;;1.85;;
27489;SDS011;14925;51.026;13.752;2022-08-21T15:54:15;6.25;;;1.63;;
27489;SDS011;14925;51.026;13.752;2022-08-21T15:56:40;4.57;;;1.52;;